sensor_id;sensor_type;location;lat;lon;timestamp;temperature;humidity
33011;DHT22;19370;48.562;9.196;2022-10-16T00:00:32;14.30;99.90
33011;DHT22;19370;48.562;9.196;2022-10-16T00:02:58;14.30;99.90
33011;DHT22;19370;48.562;9.196;2022-10-16T00:05:24;14.20;99.90
33011;DHT22;19370;48.562;9.196;2022-10-16T00:07:53;14.20;99.90
33011;DHT22;19370;48.562;9.196;2022-10-16T00:10:19;14.20;99.90
33011;DHT22;19370;48.562;9.196;2022-10-16T00:12:45;14.20;99.90
33011;DHT22;19370;48.562;9.196;2022-10-16T00:15:11;14.10;99.90
33011;DHT22;19370;48.562;9.196;2022-10-16T00:17:36;14.10;99.90
33011;DHT22;19370;48.562;9.196;2022-10-16T00:20:02;14.00;99.90
33011;DHT22;19370;48.562;9.196;2022-10-16T00:22:29;14.00;99.90
33011;DHT22;19370;48.562;9.196;2022-10-16T00:24:54;14.00;99.90
33011;DHT22;19370;48.562;9.196;2022-10-16T00:27:20;14.00;99.90
33011;DHT22;19370;48.562;9.196;2022-10-16T00:29:50;14.10;99.90
33011;DHT22;19370;48.562;9.196;2022-10-16T00:32:17;14.10;99.90
33011;DHT22;19370;48.562;9.196;2022-10-16T00:34:46;14.10;99.90
33011;DHT22;19370;48.562;9.196;2022-10-16T00:37:13;14.10;99.90
33011;DHT22;19370;48.562;9.196;2022-10-16T00:39:39;14.10;99.90
33011;DHT22;19370;48.562;9.196;2022-10-16T00:42:05;14.10;99.90
33011;DHT22;19370;48.562;9.196;2022-10-16T00:49:52;14.00;99.90
33011;DHT22;19370;48.562;9.196;2022-10-16T00:52:19;14.00;99.90
33011;DHT22;19370;48.562;9.196;2022-10-16T00:54:46;13.90;99.90
33011;DHT22;19370;48.562;9.196;2022-10-16T00:57:13;13.90;99.90
33011;DHT22;19370;48.562;9.196;2022-10-16T00:59:41;13.90;99.90
33011;DHT22;19370;48.562;9.196;2022-10-16T01:02:10;13.90;99.90
33011;DHT22;19370;48.562;9.196;2022-10-16T01:04:52;13.90;99.90
33011;DHT22;19370;48.562;9.196;2022-10-16T01:13:08;13.90;99.90
33011;DHT22;19370;48.562;9.196;2022-10-16T01:15:42;13.90;99.90
33011;DHT22;19370;48.562;9.196;2022-10-16T01:18:20;13.90;99.90
33011;DHT22;19370;48.562;9.196;2022-10-16T01:21:03;13.90;99.90
33011;DHT22;19370;48.562;9.196;2022-10-16T01:29:37;13.80;99.90
33011;DHT22;19370;48.562;9.196;2022-10-16T01:34:52;13.80;99.90
33011;DHT22;19370;48.562;9.196;2022-10-16T01:37:33;13.80;99.90
33011;DHT22;19370;48.562;9.196;2022-10-16T01:40:04;13.70;99.90
33011;DHT22;19370;48.562;9.196;2022-10-16T01:42:38;13.70;99.90
33011;DHT22;19370;48.562;9.196;2022-10-16T01:45:07;13.60;99.90
33011;DHT22;19370;48.562;9.196;2022-10-16T01:47:35;13.70;99.90
33011;DHT22;19370;48.562;9.196;2022-10-16T01:50:03;13.70;99.90
33011;DHT22;19370;48.562;9.196;2022-10-16T01:52:32;13.60;99.90
33011;DHT22;19370;48.562;9.196;2022-10-16T01:55:02;13.60;99.90
33011;DHT22;19370;48.562;9.196;2022-10-16T01:57:30;13.60;99.90
33011;DHT22;19370;48.562;9.196;2022-10-16T02:00:00;13.60;99.90
33011;DHT22;19370;48.562;9.196;2022-10-16T02:02:30;13.60;99.90
33011;DHT22;19370;48.562;9.196;2022-10-16T02:05:02;13.60;99.90
33011;DHT22;19370;48.562;9.196;2022-10-16T02:07:29;13.60;99.90
33011;DHT22;19370;48.562;9.196;2022-10-16T02:09:55;13.60;99.90
33011;DHT22;19370;48.562;9.196;2022-10-16T02:12:27;13.50;99.90
33011;DHT22;19370;48.562;9.196;2022-10-16T02:14:53;13.60;99.90
33011;DHT22;19370;48.562;9.196;2022-10-16T02:17:21;13.60;99.90
33011;DHT22;19370;48.562;9.196;2022-10-16T02:19:49;13.60;99.90
33011;DHT22;19370;48.562;9.196;2022-10-16T02:22:19;13.60;99.90
33011;DHT22;19370;48.562;9.196;2022-10-16T02:30:25;13.70;99.90
33011;DHT22;19370;48.562;9.196;2022-10-16T02:32:52;13.70;99.90
33011;DHT22;19370;48.562;9.196;2022-10-16T02:35:20;13.70;99.90
33011;DHT22;19370;48.562;9.196;2022-10-16T02:37:49;13.70;99.90
33011;DHT22;19370;48.562;9.196;2022-10-16T02:40:17;13.60;99.90
33011;DHT22;19370;48.562;9.196;2022-10-16T02:42:43;13.60;99.90
33011;DHT22;19370;48.562;9.196;2022-10-16T02:45:10;13.60;99.90
33011;DHT22;19370;48.562;9.196;2022-10-16T02:47:36;13.70;99.90
33011;DHT22;19370;48.562;9.196;2022-10-16T02:50:03;13.70;99.90
33011;DHT22;19370;48.562;9.196;2022-10-16T02:52:29;13.70;99.90
33011;DHT22;19370;48.562;9.196;2022-10-16T02:54:55;13.70;99.90
33011;DHT22;19370;48.562;9.196;2022-10-16T02:57:20;13.70;99.90
33011;DHT22;19370;48.562;9.196;2022-10-16T02:59:46;13.70;99.90
33011;DHT22;19370;48.562;9.196;2022-10-16T03:02:12;13.70;99.90
33011;DHT22;19370;48.562;9.196;2022-10-16T03:04:37;13.70;99.90
33011;DHT22;19370;48.562;9.196;2022-10-16T03:07:03;13.70;99.90
33011;DHT22;19370;48.562;9.196;2022-10-16T03:09:29;13.80;99.90
33011;DHT22;19370;48.562;9.196;2022-10-16T03:11:55;13.80;99.90
33011;DHT22;19370;48.562;9.196;2022-10-16T03:14:21;13.90;99.90
33011;DHT22;19370;48.562;9.196;2022-10-16T03:16:46;13.90;99.90
33011;DHT22;19370;48.562;9.196;2022-10-16T03:19:12;13.90;99.90
33011;DHT22;19370;48.562;9.196;2022-10-16T03:21:38;13.90;99.90
33011;DHT22;19370;48.562;9.196;2022-10-16T03:24:04;13.90;99.90
33011;DHT22;19370;48.562;9.196;2022-10-16T03:26:30;14.00;99.90
33011;DHT22;19370;48.562;9.196;2022-10-16T03:28:55;13.90;99.90
33011;DHT22;19370;48.562;9.196;2022-10-16T03:31:21;13.90;99.90
33011;DHT22;19370;48.562;9.196;2022-10-16T03:33:47;13.90;99.90
33011;DHT22;19370;48.562;9.196;2022-10-16T03:36:12;13.90;99.90
33011;DHT22;19370;48.562;9.196;2022-10-16T03:38:38;13.90;99.90
33011;DHT22;19370;48.562;9.196;2022-10-16T03:41:04;13.90;99.90
33011;DHT22;19370;48.562;9.196;2022-10-16T03:43:30;13.90;99.90
33011;DHT22;19370;48.562;9.196;2022-10-16T03:45:56;13.90;99.90
33011;DHT22;19370;48.562;9.196;2022-10-16T03:48:21;13.90;99.90
33011;DHT22;19370;48.562;9.196;2022-10-16T03:50:47;13.90;99.90
33011;DHT22;19370;48.562;9.196;2022-10-16T03:53:14;13.90;99.90
33011;DHT22;19370;48.562;9.196;2022-10-16T03:55:44;13.90;99.90
33011;DHT22;19370;48.562;9.196;2022-10-16T03:58:10;13.90;99.90
33011;DHT22;19370;48.562;9.196;2022-10-16T04:00:39;13.90;99.90
33011;DHT22;19370;48.562;9.196;2022-10-16T04:03:05;13.90;99.90
33011;DHT22;19370;48.562;9.196;2022-10-16T04:05:31;13.90;99.90
33011;DHT22;19370;48.562;9.196;2022-10-16T04:07:57;13.90;99.90
33011;DHT22;19370;48.562;9.196;2022-10-16T04:10:22;13.90;99.90
33011;DHT22;19370;48.562;9.196;2022-10-16T04:12:48;13.90;99.90
33011;DHT22;19370;48.562;9.196;2022-10-16T04:15:14;13.90;99.90
33011;DHT22;19370;48.562;9.196;2022-10-16T04:17:39;13.90;99.90
33011;DHT22;19370;48.562;9.196;2022-10-16T04:20:06;13.90;99.90
33011;DHT22;19370;48.562;9.196;2022-10-16T04:22:33;13.90;99.90
33011;DHT22;19370;48.562;9.196;2022-10-16T04:24:58;13.90;99.90
33011;DHT22;19370;48.562;9.196;2022-10-16T04:27:24;13.90;99.90
33011;DHT22;19370;48.562;9.196;2022-10-16T04:29:50;13.90;99.90
33011;DHT22;19370;48.562;9.196;2022-10-16T04:32:16;13.80;99.90
33011;DHT22;19370;48.562;9.196;2022-10-16T04:34:41;13.80;99.90
33011;DHT22;19370;48.562;9.196;2022-10-16T04:37:07;13.80;99.90
33011;DHT22;19370;48.562;9.196;2022-10-16T04:39:33;13.70;99.90
33011;DHT22;19370;48.562;9.196;2022-10-16T04:41:58;13.70;99.90
33011;DHT22;19370;48.562;9.196;2022-10-16T04:44:24;13.70;99.90
33011;DHT22;19370;48.562;9.196;2022-10-16T04:46:53;13.60;99.90
33011;DHT22;19370;48.562;9.196;2022-10-16T04:49:18;13.60;99.90
33011;DHT22;19370;48.562;9.196;2022-10-16T04:51:44;13.60;99.90
33011;DHT22;19370;48.562;9.196;2022-10-16T04:54:10;13.60;99.90
33011;DHT22;19370;48.562;9.196;2022-10-16T04:56:36;13.70;99.90
33011;DHT22;19370;48.562;9.196;2022-10-16T04:59:09;13.70;99.90
33011;DHT22;19370;48.562;9.196;2022-10-16T05:01:35;13.70;99.90
33011;DHT22;19370;48.562;9.196;2022-10-16T05:04:01;13.70;99.90
33011;DHT22;19370;48.562;9.196;2022-10-16T05:06:26;13.70;99.90
33011;DHT22;19370;48.562;9.196;2022-10-16T05:08:52;13.70;99.90
33011;DHT22;19370;48.562;9.196;2022-10-16T05:11:18;13.70;99.90
33011;DHT22;19370;48.562;9.196;2022-10-16T05:13:43;13.80;99.90
33011;DHT22;19370;48.562;9.196;2022-10-16T05:16:09;13.70;99.90
33011;DHT22;19370;48.562;9.196;2022-10-16T05:18:35;13.70;99.90
33011;DHT22;19370;48.562;9.196;2022-10-16T05:21:01;13.70;99.90
33011;DHT22;19370;48.562;9.196;2022-10-16T05:23:26;13.60;99.90
33011;DHT22;19370;48.562;9.196;2022-10-16T05:25:56;13.60;99.90
33011;DHT22;19370;48.562;9.196;2022-10-16T05:28:28;13.50;99.90
33011;DHT22;19370;48.562;9.196;2022-10-16T05:30:54;13.50;99.90
33011;DHT22;19370;48.562;9.196;2022-10-16T05:33:21;13.50;99.90
33011;DHT22;19370;48.562;9.196;2022-10-16T05:35:47;13.50;99.90
33011;DHT22;19370;48.562;9.196;2022-10-16T05:38:13;13.40;99.90
33011;DHT22;19370;48.562;9.196;2022-10-16T05:40:38;13.40;99.90
33011;DHT22;19370;48.562;9.196;2022-10-16T05:43:05;13.40;99.90
33011;DHT22;19370;48.562;9.196;2022-10-16T05:45:31;13.40;99.90
33011;DHT22;19370;48.562;9.196;2022-10-16T05:47:56;13.30;99.90
33011;DHT22;19370;48.562;9.196;2022-10-16T05:50:22;13.30;99.90
33011;DHT22;19370;48.562;9.196;2022-10-16T05:52:47;13.30;99.90
33011;DHT22;19370;48.562;9.196;2022-10-16T05:55:13;13.30;99.90
33011;DHT22;19370;48.562;9.196;2022-10-16T05:57:39;13.30;99.90
33011;DHT22;19370;48.562;9.196;2022-10-16T06:00:05;13.30;99.90
33011;DHT22;19370;48.562;9.196;2022-10-16T06:02:31;13.30;99.90
33011;DHT22;19370;48.562;9.196;2022-10-16T06:04:57;13.30;99.90
33011;DHT22;19370;48.562;9.196;2022-10-16T06:07:23;13.40;99.90
33011;DHT22;19370;48.562;9.196;2022-10-16T06:09:50;13.40;99.90
33011;DHT22;19370;48.562;9.196;2022-10-16T06:12:16;13.40;99.90
33011;DHT22;19370;48.562;9.196;2022-10-16T06:14:42;13.40;99.90
33011;DHT22;19370;48.562;9.196;2022-10-16T06:17:07;13.50;99.90
33011;DHT22;19370;48.562;9.196;2022-10-16T06:19:33;13.60;99.90
33011;DHT22;19370;48.562;9.196;2022-10-16T06:21:59;13.60;99.90
33011;DHT22;19370;48.562;9.196;2022-10-16T06:24:25;13.60;99.90
33011;DHT22;19370;48.562;9.196;2022-10-16T06:26:51;13.60;99.90
33011;DHT22;19370;48.562;9.196;2022-10-16T06:29:17;13.60;99.90
33011;DHT22;19370;48.562;9.196;2022-10-16T06:31:43;13.70;99.90
33011;DHT22;19370;48.562;9.196;2022-10-16T06:34:09;13.70;99.90
33011;DHT22;19370;48.562;9.196;2022-10-16T06:36:36;13.80;99.90
33011;DHT22;19370;48.562;9.196;2022-10-16T06:39:03;13.80;99.90
33011;DHT22;19370;48.562;9.196;2022-10-16T06:41:30;13.90;99.90
33011;DHT22;19370;48.562;9.196;2022-10-16T06:43:56;14.00;99.90
33011;DHT22;19370;48.562;9.196;2022-10-16T06:46:23;14.00;99.90
33011;DHT22;19370;48.562;9.196;2022-10-16T06:48:49;14.10;99.90
33011;DHT22;19370;48.562;9.196;2022-10-16T06:51:21;14.10;99.90
33011;DHT22;19370;48.562;9.196;2022-10-16T06:53:55;14.30;99.90
33011;DHT22;19370;48.562;9.196;2022-10-16T06:56:24;14.30;99.90
33011;DHT22;19370;48.562;9.196;2022-10-16T06:58:50;14.30;99.90
33011;DHT22;19370;48.562;9.196;2022-10-16T07:01:19;14.30;99.90
33011;DHT22;19370;48.562;9.196;2022-10-16T07:03:45;14.30;99.90
33011;DHT22;19370;48.562;9.196;2022-10-16T07:06:14;14.30;99.90
33011;DHT22;19370;48.562;9.196;2022-10-16T07:08:42;14.30;99.90
33011;DHT22;19370;48.562;9.196;2022-10-16T07:11:11;14.20;99.90
33011;DHT22;19370;48.562;9.196;2022-10-16T07:13:38;14.10;99.90
33011;DHT22;19370;48.562;9.196;2022-10-16T07:16:05;14.00;99.90
33011;DHT22;19370;48.562;9.196;2022-10-16T07:18:31;14.00;99.90
33011;DHT22;19370;48.562;9.196;2022-10-16T07:21:09;14.10;99.90
33011;DHT22;19370;48.562;9.196;2022-10-16T07:23:35;14.10;99.90
33011;DHT22;19370;48.562;9.196;2022-10-16T07:26:01;14.10;99.90
33011;DHT22;19370;48.562;9.196;2022-10-16T07:28:29;14.10;99.90
33011;DHT22;19370;48.562;9.196;2022-10-16T07:30:55;14.10;99.90
33011;DHT22;19370;48.562;9.196;2022-10-16T07:33:21;14.10;99.90
33011;DHT22;19370;48.562;9.196;2022-10-16T07:35:51;14.20;99.90
33011;DHT22;19370;48.562;9.196;2022-10-16T07:38:17;14.30;99.90
33011;DHT22;19370;48.562;9.196;2022-10-16T07:40:43;14.30;99.90
33011;DHT22;19370;48.562;9.196;2022-10-16T07:43:09;14.40;99.90
33011;DHT22;19370;48.562;9.196;2022-10-16T07:45:35;14.50;99.90
33011;DHT22;19370;48.562;9.196;2022-10-16T07:48:00;14.50;99.90
33011;DHT22;19370;48.562;9.196;2022-10-16T07:50:26;14.60;99.90
33011;DHT22;19370;48.562;9.196;2022-10-16T07:52:52;14.60;99.90
33011;DHT22;19370;48.562;9.196;2022-10-16T07:55:18;14.60;99.90
33011;DHT22;19370;48.562;9.196;2022-10-16T07:57:43;14.80;99.90
33011;DHT22;19370;48.562;9.196;2022-10-16T08:00:10;14.90;99.90
33011;DHT22;19370;48.562;9.196;2022-10-16T08:02:42;14.90;99.90
33011;DHT22;19370;48.562;9.196;2022-10-16T08:05:08;15.00;99.90
33011;DHT22;19370;48.562;9.196;2022-10-16T08:07:34;15.10;99.90
33011;DHT22;19370;48.562;9.196;2022-10-16T08:09:59;15.00;99.90
33011;DHT22;19370;48.562;9.196;2022-10-16T08:12:26;14.90;99.90
33011;DHT22;19370;48.562;9.196;2022-10-16T08:14:51;14.80;99.90
33011;DHT22;19370;48.562;9.196;2022-10-16T08:17:17;15.00;99.90
33011;DHT22;19370;48.562;9.196;2022-10-16T08:19:46;15.00;99.90
33011;DHT22;19370;48.562;9.196;2022-10-16T08:22:13;15.10;99.90
33011;DHT22;19370;48.562;9.196;2022-10-16T08:24:39;15.10;99.90
33011;DHT22;19370;48.562;9.196;2022-10-16T08:27:05;15.20;99.90
33011;DHT22;19370;48.562;9.196;2022-10-16T08:29:31;15.30;99.90
33011;DHT22;19370;48.562;9.196;2022-10-16T08:31:57;15.60;99.90
33011;DHT22;19370;48.562;9.196;2022-10-16T08:34:22;15.70;99.90
33011;DHT22;19370;48.562;9.196;2022-10-16T08:36:48;16.00;99.90
33011;DHT22;19370;48.562;9.196;2022-10-16T08:39:15;16.20;99.90
33011;DHT22;19370;48.562;9.196;2022-10-16T08:47:26;16.10;99.90
33011;DHT22;19370;48.562;9.196;2022-10-16T08:50:00;16.00;99.90
33011;DHT22;19370;48.562;9.196;2022-10-16T08:52:34;15.90;99.90
33011;DHT22;19370;48.562;9.196;2022-10-16T08:55:01;15.90;99.90
33011;DHT22;19370;48.562;9.196;2022-10-16T08:57:27;15.80;99.90
33011;DHT22;19370;48.562;9.196;2022-10-16T08:59:54;15.70;99.90
33011;DHT22;19370;48.562;9.196;2022-10-16T09:02:44;15.60;99.90
33011;DHT22;19370;48.562;9.196;2022-10-16T09:08:00;15.70;99.90
33011;DHT22;19370;48.562;9.196;2022-10-16T09:13:13;15.60;99.90
33011;DHT22;19370;48.562;9.196;2022-10-16T09:15:50;15.70;99.90
33011;DHT22;19370;48.562;9.196;2022-10-16T09:21:23;16.00;99.90
33011;DHT22;19370;48.562;9.196;2022-10-16T09:23:50;16.10;99.90
33011;DHT22;19370;48.562;9.196;2022-10-16T09:26:16;16.40;99.90
33011;DHT22;19370;48.562;9.196;2022-10-16T09:28:44;16.70;99.90
33011;DHT22;19370;48.562;9.196;2022-10-16T09:31:19;17.00;99.90
33011;DHT22;19370;48.562;9.196;2022-10-16T09:34:34;17.10;99.90
33011;DHT22;19370;48.562;9.196;2022-10-16T09:36:45;17.30;99.90
33011;DHT22;19370;48.562;9.196;2022-10-16T09:39:12;17.50;99.90
33011;DHT22;19370;48.562;9.196;2022-10-16T09:41:40;17.40;99.90
33011;DHT22;19370;48.562;9.196;2022-10-16T09:44:28;17.30;99.90
33011;DHT22;19370;48.562;9.196;2022-10-16T09:47:19;17.50;99.90
33011;DHT22;19370;48.562;9.196;2022-10-16T09:49:57;17.70;99.90
33011;DHT22;19370;48.562;9.196;2022-10-16T09:52:25;17.70;99.90
33011;DHT22;19370;48.562;9.196;2022-10-16T09:54:52;17.60;99.90
33011;DHT22;19370;48.562;9.196;2022-10-16T09:57:18;17.30;99.90
33011;DHT22;19370;48.562;9.196;2022-10-16T09:59:52;17.20;99.90
33011;DHT22;19370;48.562;9.196;2022-10-16T10:02:34;17.20;99.90
33011;DHT22;19370;48.562;9.196;2022-10-16T10:05:01;17.20;99.90
33011;DHT22;19370;48.562;9.196;2022-10-16T10:07:37;17.20;99.90
33011;DHT22;19370;48.562;9.196;2022-10-16T10:10:18;17.30;99.90
33011;DHT22;19370;48.562;9.196;2022-10-16T10:12:45;17.40;99.90
33011;DHT22;19370;48.562;9.196;2022-10-16T10:15:12;17.70;99.90
33011;DHT22;19370;48.562;9.196;2022-10-16T10:17:47;18.20;99.90
33011;DHT22;19370;48.562;9.196;2022-10-16T10:22:54;19.40;99.90
33011;DHT22;19370;48.562;9.196;2022-10-16T10:28:42;19.90;99.90
33011;DHT22;19370;48.562;9.196;2022-10-16T10:36:41;19.70;99.90
33011;DHT22;19370;48.562;9.196;2022-10-16T10:39:27;19.80;99.90
33011;DHT22;19370;48.562;9.196;2022-10-16T10:42:24;19.90;99.90
33011;DHT22;19370;48.562;9.196;2022-10-16T10:45:16;19.90;99.90
33011;DHT22;19370;48.562;9.196;2022-10-16T10:50:36;20.70;99.90
33011;DHT22;19370;48.562;9.196;2022-10-16T10:55:59;22.30;99.90
33011;DHT22;19370;48.562;9.196;2022-10-16T11:07:17;24.30;99.90
33011;DHT22;19370;48.562;9.196;2022-10-16T11:09:51;23.80;99.90
33011;DHT22;19370;48.562;9.196;2022-10-16T11:12:21;23.50;99.90
33011;DHT22;19370;48.562;9.196;2022-10-16T11:17:39;24.20;99.90
33011;DHT22;19370;48.562;9.196;2022-10-16T11:25:43;24.90;99.90
33011;DHT22;19370;48.562;9.196;2022-10-16T11:30:54;24.60;99.90
33011;DHT22;19370;48.562;9.196;2022-10-16T11:33:36;24.70;99.50
33011;DHT22;19370;48.562;9.196;2022-10-16T11:39:12;24.90;97.80
33011;DHT22;19370;48.562;9.196;2022-10-16T11:41:59;24.80;97.30
33011;DHT22;19370;48.562;9.196;2022-10-16T11:55:47;23.90;96.90
33011;DHT22;19370;48.562;9.196;2022-10-16T12:08:44;24.20;95.00
33011;DHT22;19370;48.562;9.196;2022-10-16T12:17:04;24.90;94.90
33011;DHT22;19370;48.562;9.196;2022-10-16T12:20:18;25.10;94.60
33011;DHT22;19370;48.562;9.196;2022-10-16T12:22:57;25.30;92.80
33011;DHT22;19370;48.562;9.196;2022-10-16T12:25:36;25.40;92.50
33011;DHT22;19370;48.562;9.196;2022-10-16T12:30:36;25.60;90.70
33011;DHT22;19370;48.562;9.196;2022-10-16T12:33:19;25.60;91.30
33011;DHT22;19370;48.562;9.196;2022-10-16T12:35:46;25.80;90.30
33011;DHT22;19370;48.562;9.196;2022-10-16T12:41:07;26.10;91.40
33011;DHT22;19370;48.562;9.196;2022-10-16T12:43:47;26.40;90.90
33011;DHT22;19370;48.562;9.196;2022-10-16T12:48:41;26.60;88.30
33011;DHT22;19370;48.562;9.196;2022-10-16T12:51:25;26.50;86.90
33011;DHT22;19370;48.562;9.196;2022-10-16T12:54:03;26.10;89.00
33011;DHT22;19370;48.562;9.196;2022-10-16T13:08:07;24.90;90.50
33011;DHT22;19370;48.562;9.196;2022-10-16T13:30:38;23.20;93.80
33011;DHT22;19370;48.562;9.196;2022-10-16T13:33:14;22.90;94.80
33011;DHT22;19370;48.562;9.196;2022-10-16T13:35:53;22.80;95.20
33011;DHT22;19370;48.562;9.196;2022-10-16T13:38:24;22.70;95.20
33011;DHT22;19370;48.562;9.196;2022-10-16T13:40:57;22.40;96.00
33011;DHT22;19370;48.562;9.196;2022-10-16T13:46:02;22.90;95.60
33011;DHT22;19370;48.562;9.196;2022-10-16T13:48:29;23.50;95.50
33011;DHT22;19370;48.562;9.196;2022-10-16T13:51:02;24.00;93.80
33011;DHT22;19370;48.562;9.196;2022-10-16T13:53:31;24.30;94.10
33011;DHT22;19370;48.562;9.196;2022-10-16T13:55:58;24.60;93.50
33011;DHT22;19370;48.562;9.196;2022-10-16T13:58:26;24.60;92.30
33011;DHT22;19370;48.562;9.196;2022-10-16T14:01:01;24.40;92.50
33011;DHT22;19370;48.562;9.196;2022-10-16T14:03:32;24.50;92.20
33011;DHT22;19370;48.562;9.196;2022-10-16T14:06:04;24.40;92.00
33011;DHT22;19370;48.562;9.196;2022-10-16T14:08:32;24.30;92.40
33011;DHT22;19370;48.562;9.196;2022-10-16T14:10:59;24.00;92.60
33011;DHT22;19370;48.562;9.196;2022-10-16T14:13:37;24.00;93.50
33011;DHT22;19370;48.562;9.196;2022-10-16T14:16:08;23.70;93.20
33011;DHT22;19370;48.562;9.196;2022-10-16T14:18:35;23.90;94.30
33011;DHT22;19370;48.562;9.196;2022-10-16T14:21:07;23.90;93.00
33011;DHT22;19370;48.562;9.196;2022-10-16T14:23:38;23.90;93.20
33011;DHT22;19370;48.562;9.196;2022-10-16T14:26:20;23.50;93.70
33011;DHT22;19370;48.562;9.196;2022-10-16T14:28:48;23.40;95.00
33011;DHT22;19370;48.562;9.196;2022-10-16T14:33:54;22.70;95.20
33011;DHT22;19370;48.562;9.196;2022-10-16T14:36:20;22.70;96.90
33011;DHT22;19370;48.562;9.196;2022-10-16T14:39:05;22.60;97.60
33011;DHT22;19370;48.562;9.196;2022-10-16T14:41:32;22.60;95.40
33011;DHT22;19370;48.562;9.196;2022-10-16T14:44:03;22.50;95.30
33011;DHT22;19370;48.562;9.196;2022-10-16T14:46:38;22.50;95.80
33011;DHT22;19370;48.562;9.196;2022-10-16T14:51:41;22.40;96.10
33011;DHT22;19370;48.562;9.196;2022-10-16T14:54:08;22.40;97.70
33011;DHT22;19370;48.562;9.196;2022-10-16T14:59:39;22.40;99.80
33011;DHT22;19370;48.562;9.196;2022-10-16T15:02:34;22.50;99.10
33011;DHT22;19370;48.562;9.196;2022-10-16T15:05:23;22.70;95.40
33011;DHT22;19370;48.562;9.196;2022-10-16T15:07:51;22.80;96.50
33011;DHT22;19370;48.562;9.196;2022-10-16T15:10:17;22.90;98.80
33011;DHT22;19370;48.562;9.196;2022-10-16T15:12:43;22.80;99.90
33011;DHT22;19370;48.562;9.196;2022-10-16T15:15:35;22.50;99.90
33011;DHT22;19370;48.562;9.196;2022-10-16T15:18:03;22.30;99.90
33011;DHT22;19370;48.562;9.196;2022-10-16T15:20:35;22.10;99.90
33011;DHT22;19370;48.562;9.196;2022-10-16T15:23:03;21.80;99.90
33011;DHT22;19370;48.562;9.196;2022-10-16T15:28:08;21.50;99.90
33011;DHT22;19370;48.562;9.196;2022-10-16T15:30:35;21.60;99.90
33011;DHT22;19370;48.562;9.196;2022-10-16T15:33:02;22.10;99.90
33011;DHT22;19370;48.562;9.196;2022-10-16T15:35:28;22.50;99.90
33011;DHT22;19370;48.562;9.196;2022-10-16T15:37:55;22.50;99.90
33011;DHT22;19370;48.562;9.196;2022-10-16T15:40:21;22.30;99.90
33011;DHT22;19370;48.562;9.196;2022-10-16T15:42:48;22.00;99.90
33011;DHT22;19370;48.562;9.196;2022-10-16T15:45:15;21.60;99.90
33011;DHT22;19370;48.562;9.196;2022-10-16T15:47:42;21.30;99.90
33011;DHT22;19370;48.562;9.196;2022-10-16T15:50:10;21.10;99.90
33011;DHT22;19370;48.562;9.196;2022-10-16T15:52:37;20.90;99.90
33011;DHT22;19370;48.562;9.196;2022-10-16T15:55:09;20.70;99.90
33011;DHT22;19370;48.562;9.196;2022-10-16T15:57:36;20.50;99.90
33011;DHT22;19370;48.562;9.196;2022-10-16T16:00:10;20.30;99.90
33011;DHT22;19370;48.562;9.196;2022-10-16T16:02:37;20.10;99.90
33011;DHT22;19370;48.562;9.196;2022-10-16T16:05:02;20.00;99.90
33011;DHT22;19370;48.562;9.196;2022-10-16T16:07:33;19.90;99.90
33011;DHT22;19370;48.562;9.196;2022-10-16T16:09:59;19.80;99.90
33011;DHT22;19370;48.562;9.196;2022-10-16T16:12:25;19.60;99.90
33011;DHT22;19370;48.562;9.196;2022-10-16T16:14:51;19.50;99.90
33011;DHT22;19370;48.562;9.196;2022-10-16T16:17:17;19.40;99.90
33011;DHT22;19370;48.562;9.196;2022-10-16T16:19:43;19.40;99.90
33011;DHT22;19370;48.562;9.196;2022-10-16T16:22:09;19.30;99.90
33011;DHT22;19370;48.562;9.196;2022-10-16T16:24:35;19.10;99.90
33011;DHT22;19370;48.562;9.196;2022-10-16T16:27:01;19.00;99.90
33011;DHT22;19370;48.562;9.196;2022-10-16T16:29:27;18.90;99.90
33011;DHT22;19370;48.562;9.196;2022-10-16T16:31:53;18.80;99.90
33011;DHT22;19370;48.562;9.196;2022-10-16T16:34:26;18.60;99.90
33011;DHT22;19370;48.562;9.196;2022-10-16T16:36:52;18.50;99.90
33011;DHT22;19370;48.562;9.196;2022-10-16T16:39:18;18.40;99.90
33011;DHT22;19370;48.562;9.196;2022-10-16T16:41:44;18.30;99.90
33011;DHT22;19370;48.562;9.196;2022-10-16T16:44:14;18.20;99.90
33011;DHT22;19370;48.562;9.196;2022-10-16T16:46:42;18.00;99.90
33011;DHT22;19370;48.562;9.196;2022-10-16T16:49:11;18.00;99.90
33011;DHT22;19370;48.562;9.196;2022-10-16T16:51:37;17.80;99.90
33011;DHT22;19370;48.562;9.196;2022-10-16T16:54:04;17.70;99.90
33011;DHT22;19370;48.562;9.196;2022-10-16T16:56:30;17.60;99.90
33011;DHT22;19370;48.562;9.196;2022-10-16T16:58:57;17.50;99.90
33011;DHT22;19370;48.562;9.196;2022-10-16T17:01:25;17.50;99.90
33011;DHT22;19370;48.562;9.196;2022-10-16T17:03:54;17.40;99.90
33011;DHT22;19370;48.562;9.196;2022-10-16T17:06:28;17.30;99.90
33011;DHT22;19370;48.562;9.196;2022-10-16T17:08:57;17.20;99.90
33011;DHT22;19370;48.562;9.196;2022-10-16T17:11:25;17.20;99.90
33011;DHT22;19370;48.562;9.196;2022-10-16T17:13:52;17.20;99.90
33011;DHT22;19370;48.562;9.196;2022-10-16T17:16:20;17.20;99.90
33011;DHT22;19370;48.562;9.196;2022-10-16T17:18:46;17.20;99.90
33011;DHT22;19370;48.562;9.196;2022-10-16T17:21:12;17.20;99.90
33011;DHT22;19370;48.562;9.196;2022-10-16T17:23:38;17.10;99.90
33011;DHT22;19370;48.562;9.196;2022-10-16T17:26:13;17.10;99.90
33011;DHT22;19370;48.562;9.196;2022-10-16T17:28:39;17.00;99.90
33011;DHT22;19370;48.562;9.196;2022-10-16T17:31:13;17.10;99.90
33011;DHT22;19370;48.562;9.196;2022-10-16T17:33:39;17.10;99.90
33011;DHT22;19370;48.562;9.196;2022-10-16T17:36:06;17.00;99.90
33011;DHT22;19370;48.562;9.196;2022-10-16T17:38:32;17.00;99.90
33011;DHT22;19370;48.562;9.196;2022-10-16T17:41:10;17.00;99.90
33011;DHT22;19370;48.562;9.196;2022-10-16T17:43:37;16.90;99.90
33011;DHT22;19370;48.562;9.196;2022-10-16T17:46:06;16.90;99.90
33011;DHT22;19370;48.562;9.196;2022-10-16T17:48:36;16.80;99.90
33011;DHT22;19370;48.562;9.196;2022-10-16T17:51:07;16.80;99.90
33011;DHT22;19370;48.562;9.196;2022-10-16T17:53:34;16.80;99.90
33011;DHT22;19370;48.562;9.196;2022-10-16T17:56:11;16.80;99.90
33011;DHT22;19370;48.562;9.196;2022-10-16T17:58:38;16.80;99.90
33011;DHT22;19370;48.562;9.196;2022-10-16T18:01:15;16.80;99.90
33011;DHT22;19370;48.562;9.196;2022-10-16T18:03:42;16.80;99.90
33011;DHT22;19370;48.562;9.196;2022-10-16T18:06:08;16.80;99.90
33011;DHT22;19370;48.562;9.196;2022-10-16T18:08:37;16.80;99.90
33011;DHT22;19370;48.562;9.196;2022-10-16T18:11:03;16.70;99.90
33011;DHT22;19370;48.562;9.196;2022-10-16T18:13:29;16.80;99.90
33011;DHT22;19370;48.562;9.196;2022-10-16T18:15:59;16.70;99.90
33011;DHT22;19370;48.562;9.196;2022-10-16T18:18:25;16.70;99.90
33011;DHT22;19370;48.562;9.196;2022-10-16T18:21:02;16.70;99.90